GLI weather

Glen Innes Airport
New South Wales, Australia

Public forecast

Using degrees Celsius for public forecast. Weather courtesy of forecast.io.

METAR (pilot weather report)

Closest report is Grafton Airport, 70.1 nm (129.8 km) E. Retrieved 2019/02/16 18:00 UTC (1 hour ago):

YGFN 161800Z AUTO 21003KT 9999 // SCT042 SCT048 OVC059 19/15 Q1014

TAF (pilot weather forecast)

Closest forecast is Tamworth Airport, 95.2 nm (176.3 km) SSW. Retrieved 2019/02/16 18:36 UTC (33 minutes ago):

TAF YSTW 161647Z 1618/1712 08006KT CAVOK FM170200 23010KT CAVOK FM170900 19010KT CAVOK FM171100 11012KT CAVOK